Archival Weather

Snohomish County (Paine Fld)

Everett, Washington (KPAE)

Report from: Monday, October 23, 2023 5:23 AM PDT
Current time: Monday, June 17, 2024 1:48 AM PDT

Current weather – Weather history – Daily summaries
Weather forecast

Temperature10.6°C (51.1°F)
Dew point8.9°C (48.0°F)
Winds 6 kts (3.1 m/s, 6.9 mph) South (190°)
Visibility7 mi. (11.3 km)
Clouds Ceiling: Broken clouds 500 ft. (152 m)
Broken clouds 4,100 ft. (1,250 m)
Overcast 5,500 ft. (1,676 m)
Altimeter29.98 in.Hg (1015 mB)
Relative humidity89 %
Density altitude-431 ft. (-131 m)
Remarks Fully automated report
Automated weather observing station with precipitation discriminator
Flight conditions Instrument Meteorological Conditions
Raw dataKPAE 231223Z AUTO 19006KT 7SM BKN005 BKN041 OVC055 11/09 A2998 RMK AO2 T01060089
An error has occurred. This application may no longer respond until reloaded. Reload 🗙